createdAt,value
2022-08-04T00:00:03.555Z,29.80
2022-08-04T00:03:07.117Z,29.70
2022-08-04T00:05:46.492Z,29.70
2022-08-04T00:08:31.683Z,29.70
2022-08-04T00:10:59.963Z,29.70
2022-08-04T00:13:31.359Z,29.60
2022-08-04T00:15:59.642Z,29.60
2022-08-04T00:18:52.676Z,29.60
2022-08-04T00:21:24.615Z,29.60
2022-08-04T00:24:12.413Z,29.50
2022-08-04T00:26:40.147Z,29.50
2022-08-04T00:29:06.800Z,29.50
2022-08-04T00:31:54.923Z,29.40
2022-08-04T00:34:21.414Z,29.40
2022-08-04T00:36:48.545Z,29.40
2022-08-04T00:39:17.009Z,29.30
2022-08-04T00:42:05.549Z,29.30
2022-08-04T00:44:38.190Z,29.30
2022-08-04T00:47:19.009Z,29.20
2022-08-04T00:50:08.010Z,29.20
2022-08-04T00:52:46.840Z,29.20
2022-08-04T00:55:32.369Z,29.10
2022-08-04T00:58:18.849Z,29.10
2022-08-04T01:01:26.657Z,29.10
2022-08-04T01:04:22.105Z,29.10
2022-08-04T01:07:04.136Z,29.00
2022-08-04T01:09:52.708Z,29.00
2022-08-04T01:12:31.552Z,29.00
2022-08-04T01:15:53.987Z,29.00
2022-08-04T01:18:35.133Z,29.00
2022-08-04T01:21:29.430Z,29.00
2022-08-04T01:23:56.060Z,28.90
2022-08-04T01:26:42.597Z,28.90
2022-08-04T01:29:23.129Z,28.90
2022-08-04T01:32:04.063Z,28.80
2022-08-04T01:35:02.089Z,28.80
2022-08-04T01:37:50.096Z,28.80
2022-08-04T01:40:17.431Z,28.80
2022-08-04T01:42:47.559Z,28.80
2022-08-04T01:45:15.336Z,28.70
2022-08-04T01:47:55.820Z,28.70
2022-08-04T01:50:24.091Z,28.70
2022-08-04T01:52:53.798Z,28.70
2022-08-04T01:55:21.359Z,28.60
2022-08-04T01:57:51.071Z,28.70
2022-08-04T02:00:20.942Z,28.60
2022-08-04T02:02:48.973Z,28.60
2022-08-04T02:05:17.671Z,28.60
2022-08-04T02:08:12.557Z,28.60
2022-08-04T02:10:42.263Z,28.50
2022-08-04T02:13:33.062Z,28.50
2022-08-04T02:16:35.581Z,28.50
2022-08-04T02:19:27.679Z,28.50
2022-08-04T02:21:57.948Z,28.50
2022-08-04T02:24:27.782Z,28.50
2022-08-04T02:26:57.073Z,28.40
2022-08-04T02:29:37.620Z,28.40
2022-08-04T02:32:06.677Z,28.40
2022-08-04T02:35:05.646Z,28.40
2022-08-04T02:37:33.462Z,28.30
2022-08-04T02:40:03.982Z,28.30
2022-08-04T02:42:31.830Z,28.30
2022-08-04T02:44:59.847Z,28.30
2022-08-04T02:48:08.102Z,28.30
2022-08-04T02:50:28.235Z,28.20
2022-08-04T02:52:59.450Z,28.20
2022-08-04T02:55:28.948Z,28.20
2022-08-04T02:57:58.842Z,28.20
2022-08-04T03:00:26.464Z,28.20
2022-08-04T03:03:02.495Z,28.10
2022-08-04T03:06:01.013Z,28.10
2022-08-04T03:08:53.179Z,28.10
2022-08-04T03:11:32.061Z,28.10
2022-08-04T03:14:09.650Z,28.10
2022-08-04T03:17:05.259Z,28.10
2022-08-04T03:20:02.211Z,28.00
2022-08-04T03:23:11.673Z,28.00
2022-08-04T03:25:57.249Z,28.00
2022-08-04T03:28:47.616Z,28.00
2022-08-04T03:31:29.103Z,27.90
2022-08-04T03:34:18.786Z,27.90
2022-08-04T03:37:00.499Z,27.90
2022-08-04T03:39:39.010Z,27.90
2022-08-04T03:42:59.159Z,27.80
2022-08-04T03:45:59.592Z,27.80
2022-08-04T03:48:47.827Z,27.80
2022-08-04T03:51:58.081Z,27.80
2022-08-04T03:54:33.996Z,27.70
2022-08-04T03:57:40.349Z,27.70
2022-08-04T04:00:25.628Z,27.70
2022-08-04T04:03:11.384Z,27.70
2022-08-04T04:05:58.941Z,27.70
2022-08-04T04:08:42.542Z,27.70
2022-08-04T04:11:56.334Z,27.70
2022-08-04T04:14:49.654Z,27.70
2022-08-04T04:17:52.992Z,27.60
2022-08-04T04:20:33.062Z,27.60
2022-08-04T04:23:27.315Z,27.60
2022-08-04T04:26:06.691Z,27.60
2022-08-04T04:28:49.661Z,27.60
2022-08-04T04:31:37.522Z,27.60
2022-08-04T04:34:45.558Z,27.60
2022-08-04T04:37:51.777Z,27.60
2022-08-04T04:41:12.723Z,27.60
2022-08-04T04:44:02.119Z,27.60
2022-08-04T04:46:55.852Z,27.60
2022-08-04T04:49:33.072Z,27.60
2022-08-04T04:52:09.887Z,27.60
2022-08-04T04:54:36.487Z,27.60
2022-08-04T04:57:17.056Z,27.60
2022-08-04T05:00:03.650Z,27.70
2022-08-04T05:03:09.382Z,27.60
2022-08-04T05:05:54.108Z,27.70
2022-08-04T05:08:54.390Z,27.70
2022-08-04T05:11:40.166Z,27.70
2022-08-04T05:14:38.594Z,27.70
2022-08-04T05:17:10.572Z,27.70
2022-08-04T05:20:06.182Z,27.70
2022-08-04T05:22:42.214Z,27.70
2022-08-04T05:25:21.617Z,27.70
2022-08-04T05:28:00.560Z,27.80
2022-08-04T05:30:30.436Z,27.80
2022-08-04T05:33:09.478Z,27.80
2022-08-04T05:36:16.988Z,27.80
2022-08-04T05:38:36.049Z,27.80
2022-08-04T05:41:03.399Z,27.90
2022-08-04T05:43:30.787Z,27.90
2022-08-04T05:45:58.620Z,27.90
2022-08-04T05:48:26.886Z,27.90
2022-08-04T05:50:56.509Z,27.90
2022-08-04T05:53:27.984Z,27.90
2022-08-04T05:55:58.839Z,28.00
2022-08-04T05:58:29.738Z,28.00
2022-08-04T06:00:58.622Z,28.00
2022-08-04T06:03:27.041Z,28.00
2022-08-04T06:05:56.747Z,28.00
2022-08-04T06:08:24.366Z,28.00
2022-08-04T06:10:53.369Z,28.10
2022-08-04T06:13:46.688Z,28.10
2022-08-04T06:16:29.744Z,28.10
2022-08-04T06:20:01.890Z,28.10
2022-08-04T06:21:50.011Z,28.10
2022-08-04T06:24:20.139Z,28.10
2022-08-04T06:26:49.288Z,28.20
2022-08-04T06:29:33.716Z,28.20
2022-08-04T06:32:30.120Z,28.20
2022-08-04T06:35:04.163Z,28.20
2022-08-04T06:37:42.740Z,28.20
2022-08-04T06:40:31.512Z,28.20
2022-08-04T06:43:06.354Z,28.30
2022-08-04T06:45:36.898Z,28.30
2022-08-04T06:48:05.331Z,28.30
2022-08-04T06:51:25.117Z,28.40
2022-08-04T06:53:21.542Z,28.40
2022-08-04T06:55:49.830Z,28.40
2022-08-04T06:58:19.122Z,28.40
2022-08-04T07:00:47.716Z,28.40
2022-08-04T07:03:16.143Z,28.40
2022-08-04T07:05:43.190Z,28.40
2022-08-04T07:08:13.863Z,28.50
2022-08-04T07:10:41.053Z,28.50
2022-08-04T07:13:09.347Z,28.50
2022-08-04T07:15:38.929Z,28.60
2022-08-04T07:18:05.758Z,28.60
2022-08-04T07:20:35.643Z,28.60
2022-08-04T07:23:07.493Z,28.70
2022-08-04T07:26:01.063Z,28.70
2022-08-04T07:28:27.788Z,28.80
2022-08-04T07:30:55.948Z,28.80
2022-08-04T07:33:23.605Z,28.80
2022-08-04T07:36:09.765Z,28.80
2022-08-04T07:38:48.601Z,28.90
2022-08-04T07:41:38.519Z,28.90
2022-08-04T07:44:06.794Z,28.90
2022-08-04T07:46:33.734Z,28.90
2022-08-04T07:49:01.617Z,29.00
2022-08-04T07:51:30.496Z,29.00
2022-08-04T07:53:58.903Z,29.10
2022-08-04T07:56:29.168Z,29.10
2022-08-04T07:58:56.317Z,29.20
2022-08-04T08:01:26.851Z,29.20
2022-08-04T08:03:56.618Z,29.20
2022-08-04T08:06:33.027Z,29.30
2022-08-04T08:09:13.407Z,29.30
2022-08-04T08:12:36.466Z,29.30
2022-08-04T08:14:35.359Z,29.40
2022-08-04T08:17:04.396Z,29.40
2022-08-04T08:19:32.259Z,29.50
2022-08-04T08:22:00.744Z,29.50
2022-08-04T08:24:35.663Z,29.50
2022-08-04T08:27:06.730Z,29.60
2022-08-04T08:29:34.924Z,29.70
2022-08-04T08:32:08.264Z,29.70
2022-08-04T08:34:36.686Z,29.70
2022-08-04T08:37:30.854Z,29.70
2022-08-04T08:40:18.396Z,29.80
2022-08-04T08:44:06.106Z,29.80
2022-08-04T08:46:49.048Z,29.80
2022-08-04T08:50:01.955Z,29.80
2022-08-04T08:52:57.667Z,29.90
2022-08-04T08:55:40.661Z,29.90
2022-08-04T08:58:22.430Z,29.90
2022-08-04T09:01:34.189Z,30.00
2022-08-04T09:04:32.303Z,30.00
2022-08-04T09:07:10.408Z,30.00
2022-08-04T09:09:49.415Z,30.00
2022-08-04T09:12:25.908Z,30.00
2022-08-04T09:15:27.700Z,30.10
2022-08-04T09:18:02.812Z,30.10
2022-08-04T09:20:47.854Z,30.20
2022-08-04T09:23:36.401Z,30.20
2022-08-04T09:26:29.519Z,30.20
2022-08-04T09:29:15.526Z,30.30
2022-08-04T09:32:18.073Z,30.40
2022-08-04T09:35:03.543Z,30.40
2022-08-04T09:37:45.976Z,30.50
2022-08-04T09:40:53.648Z,30.50
2022-08-04T09:43:59.270Z,30.50
2022-08-04T09:46:51.538Z,30.50
2022-08-04T09:49:38.538Z,30.50
2022-08-04T09:52:11.508Z,30.50
2022-08-04T09:55:07.257Z,30.60
2022-08-04T09:57:56.310Z,30.60
2022-08-04T10:00:40.753Z,30.70
2022-08-04T10:03:14.750Z,30.70
2022-08-04T10:06:11.709Z,30.80
2022-08-04T10:08:57.419Z,30.80
2022-08-04T10:11:55.971Z,30.80
2022-08-04T10:14:39.315Z,30.80
2022-08-04T10:17:52.407Z,30.80
2022-08-04T10:21:00.084Z,30.80
2022-08-04T10:23:56.421Z,30.90
2022-08-04T10:26:29.466Z,30.90
2022-08-04T10:29:34.983Z,30.90
2022-08-04T10:32:26.363Z,31.00
2022-08-04T10:35:01.883Z,31.00
2022-08-04T10:37:58.995Z,31.00
2022-08-04T10:40:50.589Z,31.00
2022-08-04T10:43:33.073Z,31.10
2022-08-04T10:46:14.796Z,31.10
2022-08-04T10:48:59.031Z,31.10
2022-08-04T10:51:58.436Z,31.10
2022-08-04T10:55:08.006Z,31.10
2022-08-04T10:57:51.659Z,31.10
2022-08-04T11:00:25.790Z,31.10
2022-08-04T11:02:58.433Z,31.20
2022-08-04T11:05:27.873Z,31.30
2022-08-04T11:08:07.553Z,31.30
2022-08-04T11:10:45.352Z,31.40
2022-08-04T11:13:22.021Z,31.30
2022-08-04T11:16:03.207Z,31.30
2022-08-04T11:18:54.385Z,31.30
2022-08-04T11:21:26.379Z,31.40
2022-08-04T11:24:30.356Z,31.40
2022-08-04T11:27:02.124Z,31.40
2022-08-04T11:29:40.095Z,31.50
2022-08-04T11:32:17.641Z,31.50
2022-08-04T11:34:52.842Z,31.60
2022-08-04T11:37:28.914Z,31.70
2022-08-04T11:40:13.676Z,31.70
2022-08-04T11:42:52.416Z,31.70
2022-08-04T11:45:31.032Z,31.80
2022-08-04T11:48:00.703Z,31.90
2022-08-04T11:50:43.312Z,31.90
2022-08-04T11:53:17.278Z,31.90
2022-08-04T11:56:07.779Z,32.10
2022-08-04T11:58:33.507Z,32.20
2022-08-04T12:01:06.534Z,32.40
2022-08-04T12:04:10.902Z,32.40
2022-08-04T12:07:21.354Z,32.30
2022-08-04T12:09:53.123Z,32.40
2022-08-04T12:12:32.511Z,32.50
2022-08-04T12:15:26.453Z,32.40
2022-08-04T12:18:05.660Z,32.50
2022-08-04T12:20:42.192Z,32.50
2022-08-04T12:23:18.753Z,32.50
2022-08-04T12:25:53.826Z,32.50
2022-08-04T12:28:52.600Z,32.60
2022-08-04T12:31:40.354Z,32.60
2022-08-04T12:34:13.707Z,32.70
2022-08-04T12:36:42.655Z,32.70
2022-08-04T12:39:15.692Z,32.70
2022-08-04T12:42:21.620Z,32.70
2022-08-04T12:44:54.386Z,32.70
2022-08-04T12:47:29.283Z,32.50
2022-08-04T12:50:02.626Z,32.40
2022-08-04T12:55:31.754Z,32.60
2022-08-04T12:58:01.539Z,32.70
2022-08-04T13:00:41.774Z,32.80
2022-08-04T13:03:15.486Z,32.80
2022-08-04T13:05:43.681Z,32.90
2022-08-04T13:08:15.309Z,33.00
2022-08-04T13:10:46.520Z,32.90
2022-08-04T13:13:19.283Z,32.90
2022-08-04T13:16:00.621Z,33.00
2022-08-04T13:18:32.577Z,33.20
2022-08-04T13:21:20.490Z,33.40
2022-08-04T13:24:09.819Z,33.40
2022-08-04T13:26:53.903Z,33.20
2022-08-04T13:29:57.693Z,33.10
2022-08-04T13:32:23.473Z,33.20
2022-08-04T13:34:53.773Z,33.40
2022-08-04T13:37:25.767Z,33.60
2022-08-04T13:39:55.941Z,33.90
2022-08-04T13:42:24.399Z,34.10
2022-08-04T13:44:57.136Z,34.10
2022-08-04T13:47:30.519Z,34.20
2022-08-04T13:50:16.064Z,34.20
2022-08-04T13:52:44.910Z,34.30
2022-08-04T13:55:35.311Z,34.60
2022-08-04T13:58:10.475Z,34.90
2022-08-04T14:00:45.298Z,35.10
2022-08-04T14:03:24.414Z,35.10
2022-08-04T14:06:12.222Z,35.00
2022-08-04T14:08:52.056Z,35.30
2022-08-04T14:12:06.738Z,35.60
2022-08-04T14:14:17.232Z,35.50
2022-08-04T14:17:29.921Z,35.30
2022-08-04T14:20:01.602Z,35.10
2022-08-04T14:22:31.258Z,35.00
2022-08-04T14:25:09.048Z,35.10
2022-08-04T14:27:46.630Z,35.50
2022-08-04T14:30:32.715Z,36.00
2022-08-04T14:34:01.482Z,36.50
2022-08-04T14:35:57.690Z,36.70
2022-08-04T14:38:24.405Z,36.60
2022-08-04T14:40:59.759Z,36.60
2022-08-04T14:43:29.828Z,36.50
2022-08-04T14:46:04.479Z,36.20
2022-08-04T14:48:31.457Z,35.80
2022-08-04T14:50:58.318Z,35.70
2022-08-04T14:53:26.555Z,35.90
2022-08-04T14:55:57.128Z,36.30
2022-08-04T14:58:35.110Z,36.60
2022-08-04T15:01:10.377Z,36.80
2022-08-04T15:03:50.653Z,36.90
2022-08-04T15:06:28.299Z,36.80
2022-08-04T15:08:58.006Z,36.70
2022-08-04T15:11:24.997Z,36.80
2022-08-04T15:13:53.501Z,37.30
2022-08-04T15:16:21.851Z,37.60
2022-08-04T15:18:49.587Z,37.90
2022-08-04T15:21:16.865Z,38.10
2022-08-04T15:23:44.151Z,38.20
2022-08-04T15:26:23.715Z,38.20
2022-08-04T15:28:58.113Z,38.10
2022-08-04T15:32:06.621Z,38.30
2022-08-04T15:34:14.777Z,38.40
2022-08-04T15:36:56.663Z,38.60
2022-08-04T15:39:58.551Z,38.90
2022-08-04T15:43:09.898Z,39.20
2022-08-04T15:46:34.955Z,39.00
2022-08-04T15:48:39.325Z,38.70
2022-08-04T15:51:15.216Z,38.80
2022-08-04T15:54:08.705Z,39.10
2022-08-04T15:57:02.298Z,39.50
2022-08-04T16:00:07.661Z,39.70
2022-08-04T16:02:39.319Z,39.60
2022-08-04T16:05:18.390Z,39.60
2022-08-04T16:08:11.747Z,39.60
2022-08-04T16:10:41.010Z,39.60
2022-08-04T16:13:15.156Z,39.70
2022-08-04T16:15:45.086Z,39.90
2022-08-04T16:18:26.401Z,40.00
2022-08-04T16:20:58.384Z,40.40
2022-08-04T16:23:55.006Z,40.80
2022-08-04T16:26:45.117Z,40.90
2022-08-04T16:29:30.858Z,40.50
2022-08-04T16:32:12.892Z,40.40
2022-08-04T16:35:05.517Z,40.00
2022-08-04T16:37:40.068Z,39.80
2022-08-04T16:40:37.505Z,39.80
2022-08-04T16:43:07.650Z,40.20
2022-08-04T16:45:53.723Z,41.10
2022-08-04T16:48:40.790Z,42.10
2022-08-04T16:51:09.864Z,42.60
2022-08-04T16:54:02.825Z,43.10
2022-08-04T16:56:34.419Z,43.40
2022-08-04T16:59:12.706Z,43.80
2022-08-04T17:01:51.043Z,44.30
2022-08-04T17:04:21.267Z,44.80
2022-08-04T17:06:48.148Z,45.10
2022-08-04T17:09:19.516Z,44.80
2022-08-04T17:11:48.262Z,44.80
2022-08-04T17:14:25.637Z,44.80
2022-08-04T17:16:53.554Z,44.60
2022-08-04T17:19:25.685Z,44.40
2022-08-04T17:22:04.755Z,44.10
2022-08-04T17:24:33.978Z,43.90
2022-08-04T17:27:01.014Z,43.70
2022-08-04T17:29:42.209Z,43.80
2022-08-04T17:32:20.820Z,44.10
2022-08-04T17:35:03.726Z,44.50
2022-08-04T17:40:25.884Z,45.00
2022-08-04T17:44:00.914Z,44.90
2022-08-04T17:46:28.238Z,44.40
2022-08-04T17:49:16.526Z,43.90
2022-08-04T17:52:05.548Z,43.80
2022-08-04T17:54:39.931Z,43.60
2022-08-04T17:57:27.799Z,43.70
2022-08-04T18:00:00.014Z,43.60
2022-08-04T18:02:34.093Z,43.50
2022-08-04T18:05:06.725Z,43.50
2022-08-04T18:08:37.934Z,43.30
2022-08-04T18:10:55.549Z,43.00
2022-08-04T18:13:26.811Z,42.70
2022-08-04T18:16:10.058Z,42.30
2022-08-04T18:18:39.682Z,41.70
2022-08-04T18:21:15.589Z,41.10
2022-08-04T18:23:50.719Z,40.50
2022-08-04T18:26:18.057Z,40.10
2022-08-04T18:28:44.725Z,39.50
2022-08-04T18:31:11.537Z,39.00
2022-08-04T18:33:43.313Z,38.60
2022-08-04T18:36:32.613Z,38.10
2022-08-04T18:39:13.009Z,37.70
2022-08-04T18:42:00.714Z,37.40
2022-08-04T18:44:31.028Z,37.20
2022-08-04T18:47:19.013Z,37.00
2022-08-04T18:50:59.888Z,36.80
2022-08-04T18:52:32.385Z,36.60
2022-08-04T18:55:01.904Z,36.40
2022-08-04T18:57:59.807Z,36.30
2022-08-04T19:00:20.189Z,36.10
2022-08-04T19:02:47.523Z,36.00
2022-08-04T19:05:17.518Z,35.90
2022-08-04T19:08:11.229Z,35.90
2022-08-04T19:10:32.751Z,35.80
2022-08-04T19:13:01.383Z,35.80
2022-08-04T19:18:18.730Z,35.60
2022-08-04T19:20:46.901Z,35.50
2022-08-04T19:24:29.659Z,35.30
2022-08-04T19:26:06.889Z,35.30
2022-08-04T19:28:36.584Z,35.10
2022-08-04T19:31:06.669Z,35.10
2022-08-04T19:33:58.191Z,35.10
2022-08-04T19:36:20.753Z,35.00
2022-08-04T19:38:55.412Z,35.00
2022-08-04T19:41:22.797Z,34.90
2022-08-04T19:43:53.498Z,34.80
2022-08-04T19:46:21.328Z,34.80
2022-08-04T19:48:59.187Z,34.70
2022-08-04T19:51:28.820Z,34.60
2022-08-04T19:54:03.960Z,34.50
2022-08-04T19:56:40.381Z,34.50
2022-08-04T19:59:11.199Z,34.40
2022-08-04T20:01:45.243Z,34.40
2022-08-04T20:04:13.891Z,34.40
2022-08-04T20:06:40.723Z,34.30
2022-08-04T20:09:25.456Z,34.40
2022-08-04T20:11:55.263Z,34.40
2022-08-04T20:14:32.555Z,34.30
2022-08-04T20:17:10.421Z,34.20
2022-08-04T20:19:38.291Z,34.10
2022-08-04T20:22:05.384Z,34.00
2022-08-04T20:25:00.572Z,34.00
2022-08-04T20:27:51.629Z,33.90
2022-08-04T20:30:28.493Z,33.90
2022-08-04T20:32:55.938Z,33.90
2022-08-04T20:35:28.478Z,33.90
2022-08-04T20:38:00.386Z,33.90
2022-08-04T20:40:27.447Z,34.00
2022-08-04T20:42:54.169Z,33.90
2022-08-04T20:45:24.003Z,34.00
2022-08-04T20:48:10.726Z,33.90
2022-08-04T20:50:37.464Z,33.90
2022-08-04T20:53:06.170Z,33.90
2022-08-04T20:55:55.444Z,33.80
2022-08-04T20:58:27.693Z,33.70
2022-08-04T21:00:55.336Z,33.70
2022-08-04T21:03:38.480Z,33.70
2022-08-04T21:06:09.238Z,33.70
2022-08-04T21:08:37.016Z,33.70
2022-08-04T21:11:06.864Z,33.70
2022-08-04T21:13:51.981Z,33.70
2022-08-04T21:16:55.729Z,33.70
2022-08-04T21:19:06.731Z,33.50
2022-08-04T21:21:40.731Z,33.50
2022-08-04T21:24:07.685Z,33.50
2022-08-04T21:26:35.319Z,33.50
2022-08-04T21:29:04.592Z,33.40
2022-08-04T21:31:36.777Z,33.30
2022-08-04T21:34:17.207Z,33.30
2022-08-04T21:37:04.001Z,33.20
2022-08-04T21:39:32.662Z,33.20
2022-08-04T21:44:46.571Z,33.10
2022-08-04T21:47:23.559Z,33.20
2022-08-04T21:49:56.581Z,33.10
2022-08-04T21:52:24.595Z,33.10
2022-08-04T21:54:54.092Z,33.00
2022-08-04T21:57:24.894Z,33.00
2022-08-04T21:59:52.469Z,33.00
2022-08-04T22:02:19.435Z,33.00
2022-08-04T22:04:48.132Z,32.90
2022-08-04T22:07:16.573Z,32.90
2022-08-04T22:09:45.637Z,32.90
2022-08-04T22:12:29.927Z,32.90
2022-08-04T22:14:57.527Z,32.80
2022-08-04T22:17:26.975Z,32.80
2022-08-04T22:20:02.539Z,32.80
2022-08-04T22:22:29.962Z,32.70
2022-08-04T22:25:01.923Z,32.70
2022-08-04T22:27:58.023Z,32.70
2022-08-04T22:30:32.879Z,32.70
2022-08-04T22:33:05.428Z,32.70
2022-08-04T22:35:44.075Z,32.60
2022-08-04T22:38:24.499Z,32.60
2022-08-04T22:41:09.325Z,32.50
2022-08-04T22:43:37.545Z,32.50
2022-08-04T22:46:12.108Z,32.50
2022-08-04T22:48:43.312Z,32.40
2022-08-04T22:51:10.563Z,32.40
2022-08-04T22:53:39.864Z,32.40
2022-08-04T22:56:10.739Z,32.30
2022-08-04T22:58:40.066Z,32.30
2022-08-04T23:01:07.862Z,32.30
2022-08-04T23:03:37.125Z,32.30
2022-08-04T23:06:11.734Z,32.20
2022-08-04T23:08:43.276Z,32.20
2022-08-04T23:11:13.703Z,32.20
2022-08-04T23:13:42.101Z,32.20
2022-08-04T23:16:10.391Z,32.20
2022-08-04T23:18:41.760Z,32.10
2022-08-04T23:21:10.201Z,32.00
2022-08-04T23:23:38.144Z,32.00
2022-08-04T23:26:13.704Z,32.00
2022-08-04T23:28:40.967Z,31.90
2022-08-04T23:31:10.200Z,31.90
2022-08-04T23:33:51.388Z,31.90
2022-08-04T23:36:29.571Z,31.90
2022-08-04T23:39:03.914Z,31.80
2022-08-04T23:41:54.642Z,31.80
2022-08-04T23:44:24.702Z,31.80
2022-08-04T23:47:03.375Z,31.80
2022-08-04T23:49:43.519Z,31.80
2022-08-04T23:52:23.509Z,31.70
2022-08-04T23:54:58.199Z,31.70
2022-08-04T23:57:25.807Z,31.70
